Terminal Aerodrome Forecast
Issued by NWS

Home | Current Version | Previous Version | Text Only | Print | Product List | Glossary On
Versions: 1 2 3 4 5 6 7 8 9 10 11 12 13 14 15 16
000
FTUS41 KRNK 161137
TAFBCB
TAF
KBCB 161137Z 1612/1712 26007KT P6SM FEW050
     FM161500 28009G17KT P6SM SKC
     FM162200 VRB03KT P6SM SKC=

USA.gov is the U.S. government's official web portal to all federal, state and local government web resources and services.